createdAt,value
2019-03-25T00:00:56.487Z,19.40
2019-03-25T00:01:56.489Z,16.60
2019-03-25T00:02:56.469Z,20.80
2019-03-25T00:03:56.452Z,18.50
2019-03-25T00:04:56.426Z,23.20
2019-03-25T00:05:56.422Z,15.40
2019-03-25T00:06:56.451Z,16.50
2019-03-25T00:07:56.417Z,18.60
2019-03-25T00:09:05.002Z,16.60
2019-03-25T00:09:57.409Z,19.50
2019-03-25T00:10:56.365Z,18.40
2019-03-25T00:11:56.382Z,18.50
2019-03-25T00:12:56.352Z,18.60
2019-03-25T00:13:56.335Z,17.90
2019-03-25T00:14:56.314Z,15.70
2019-03-25T00:15:56.573Z,17.60
2019-03-25T00:16:56.333Z,19.90
2019-03-25T00:17:56.290Z,16.80
2019-03-25T00:18:56.278Z,19.10
2019-03-25T00:19:56.255Z,23.10
2019-03-25T00:20:56.248Z,25.20
2019-03-25T00:21:56.273Z,25.90
2019-03-25T00:22:56.224Z,27.00
2019-03-25T00:23:56.215Z,26.20
2019-03-25T00:24:56.220Z,29.70
2019-03-25T00:25:56.198Z,28.80
2019-03-25T00:26:56.209Z,38.70
2019-03-25T00:27:56.178Z,42.80
2019-03-25T00:28:56.164Z,47.60
2019-03-25T00:29:56.153Z,44.80
2019-03-25T00:30:56.147Z,47.90
2019-03-25T00:31:56.197Z,48.30
2019-03-25T00:32:56.185Z,46.90
2019-03-25T00:33:56.181Z,47.60
2019-03-25T00:34:56.198Z,42.40
2019-03-25T00:35:56.150Z,41.90
2019-03-25T00:36:56.187Z,45.00
2019-03-25T00:37:56.085Z,39.30
2019-03-25T00:38:56.101Z,38.20
2019-03-25T00:39:56.045Z,36.00
2019-03-25T00:40:56.223Z,31.40
2019-03-25T00:41:56.242Z,32.60
2019-03-25T00:42:56.202Z,34.30
2019-03-25T00:43:56.002Z,33.30
2019-03-25T00:44:55.997Z,28.40
2019-03-25T00:45:55.981Z,30.20
2019-03-25T00:46:55.998Z,34.70
2019-03-25T00:47:55.967Z,31.00
2019-03-25T00:48:55.947Z,34.00
2019-03-25T00:49:55.938Z,31.80
2019-03-25T00:50:55.928Z,29.70
2019-03-25T00:51:55.951Z,30.70
2019-03-25T00:52:55.902Z,30.40
2019-03-25T00:53:55.895Z,28.40
2019-03-25T00:54:55.888Z,30.80
2019-03-25T00:55:55.869Z,28.40
2019-03-25T00:56:55.887Z,27.70
2019-03-25T00:57:55.846Z,31.80
2019-03-25T00:58:55.849Z,32.40
2019-03-25T00:59:55.832Z,29.90
2019-03-25T01:00:55.820Z,29.00
2019-03-25T01:01:55.846Z,32.40
2019-03-25T01:02:55.801Z,31.60
2019-03-25T01:03:55.792Z,31.00
2019-03-25T01:04:55.778Z,28.70
2019-03-25T01:05:55.773Z,32.30
2019-03-25T01:06:55.788Z,31.40
2019-03-25T01:07:55.743Z,27.70
2019-03-25T01:08:55.751Z,25.20
2019-03-25T01:09:55.728Z,23.70
2019-03-25T01:10:55.713Z,23.80
2019-03-25T01:11:55.734Z,25.90
2019-03-25T01:12:55.687Z,23.30
2019-03-25T01:13:55.687Z,20.90
2019-03-25T01:14:55.673Z,21.10
2019-03-25T01:15:55.665Z,22.40
2019-03-25T01:16:55.674Z,20.80
2019-03-25T01:17:55.648Z,22.60
2019-03-25T01:18:55.619Z,20.10
2019-03-25T01:19:55.615Z,21.40
2019-03-25T01:20:55.606Z,21.00
2019-03-25T01:21:55.622Z,20.60
2019-03-25T01:22:55.590Z,19.50
2019-03-25T01:23:55.581Z,18.10
2019-03-25T01:25:01.812Z,20.30
2019-03-25T01:25:56.548Z,19.90
2019-03-25T01:26:55.573Z,21.40
2019-03-25T01:27:55.538Z,18.60
2019-03-25T01:28:55.516Z,21.50
2019-03-25T01:29:55.502Z,22.30
2019-03-25T01:30:55.500Z,20.80
2019-03-25T01:31:55.514Z,16.80
2019-03-25T01:32:55.476Z,18.60
2019-03-25T01:33:55.472Z,18.40
2019-03-25T01:34:55.455Z,19.10
2019-03-25T01:35:55.444Z,21.90
2019-03-25T01:36:55.465Z,21.60
2019-03-25T01:37:55.428Z,19.00
2019-03-25T01:38:55.409Z,19.20
2019-03-25T01:39:55.409Z,17.00
2019-03-25T01:40:55.396Z,20.90
2019-03-25T01:41:55.402Z,19.80
2019-03-25T01:42:55.372Z,19.30
2019-03-25T01:43:55.352Z,18.60
2019-03-25T01:44:55.338Z,20.90
2019-03-25T01:45:55.330Z,20.00
2019-03-25T01:46:55.371Z,17.20
2019-03-25T01:47:55.301Z,20.40
2019-03-25T01:48:55.293Z,17.20
2019-03-25T01:49:55.287Z,17.50
2019-03-25T01:50:55.290Z,22.00
2019-03-25T01:51:55.290Z,19.10
2019-03-25T01:52:55.255Z,18.70
2019-03-25T01:53:55.261Z,23.50
2019-03-25T01:54:55.233Z,16.00
2019-03-25T01:55:55.227Z,18.10
2019-03-25T01:56:55.239Z,20.60
2019-03-25T01:57:55.206Z,19.70
2019-03-25T01:58:55.195Z,21.10
2019-03-25T01:59:55.180Z,17.30
2019-03-25T02:00:55.181Z,16.90
2019-03-25T02:01:55.195Z,17.00
2019-03-25T02:02:55.150Z,17.40
2019-03-25T02:03:55.148Z,21.40
2019-03-25T02:04:55.128Z,22.00
2019-03-25T02:05:55.132Z,19.40
2019-03-25T02:06:55.138Z,16.10
2019-03-25T02:07:55.095Z,20.20
2019-03-25T02:08:55.086Z,25.00
2019-03-25T02:09:55.073Z,21.50
2019-03-25T02:10:55.071Z,20.40
2019-03-25T02:11:55.080Z,20.50
2019-03-25T02:12:55.045Z,21.90
2019-03-25T02:13:55.037Z,23.40
2019-03-25T02:14:55.018Z,19.60
2019-03-25T02:15:55.003Z,23.70
2019-03-25T02:16:55.038Z,21.30
2019-03-25T02:17:54.984Z,22.90
2019-03-25T02:18:54.971Z,29.00
2019-03-25T02:19:54.963Z,28.00
2019-03-25T02:20:54.945Z,32.70
2019-03-25T02:21:54.972Z,25.60
2019-03-25T02:22:55.086Z,36.00
2019-03-25T02:23:54.917Z,31.20
2019-03-25T02:24:54.904Z,35.10
2019-03-25T02:25:54.895Z,33.30
2019-03-25T02:26:54.906Z,38.70
2019-03-25T02:27:54.867Z,42.80
2019-03-25T02:28:54.853Z,38.60
2019-03-25T02:29:54.842Z,45.40
2019-03-25T02:30:54.843Z,44.10
2019-03-25T02:31:54.851Z,42.20
2019-03-25T02:32:54.826Z,42.70
2019-03-25T02:33:54.813Z,50.10
2019-03-25T02:34:54.793Z,44.10
2019-03-25T02:35:54.792Z,48.80
2019-03-25T02:36:54.798Z,49.00
2019-03-25T02:37:54.758Z,45.60
2019-03-25T02:38:54.756Z,43.60
2019-03-25T02:39:54.732Z,40.40
2019-03-25T02:40:54.729Z,42.40
2019-03-25T02:41:54.736Z,38.70
2019-03-25T02:42:54.706Z,32.90
2019-03-25T02:43:54.692Z,28.90
2019-03-25T02:44:54.682Z,29.80
2019-03-25T02:45:54.671Z,30.00
2019-03-25T02:46:54.689Z,25.50
2019-03-25T02:47:54.656Z,27.20
2019-03-25T02:48:54.656Z,25.00
2019-03-25T02:49:54.624Z,24.00
2019-03-25T02:50:54.618Z,20.30
2019-03-25T02:51:54.630Z,25.80
2019-03-25T02:52:54.590Z,24.60
2019-03-25T02:53:54.583Z,24.70
2019-03-25T02:54:54.566Z,25.10
2019-03-25T02:55:54.560Z,21.50
2019-03-25T02:56:54.584Z,24.40
2019-03-25T02:57:54.548Z,22.10
2019-03-25T02:58:54.533Z,21.40
2019-03-25T02:59:54.517Z,22.30
2019-03-25T03:00:54.503Z,27.70
2019-03-25T03:01:54.527Z,21.30
2019-03-25T03:02:54.485Z,23.30
2019-03-25T03:03:54.474Z,25.10
2019-03-25T03:04:54.474Z,28.90
2019-03-25T03:05:54.459Z,25.90
2019-03-25T03:06:54.477Z,22.10
2019-03-25T03:07:54.431Z,23.30
2019-03-25T03:08:54.431Z,27.50
2019-03-25T03:09:54.408Z,23.60
2019-03-25T03:10:54.401Z,24.40
2019-03-25T03:11:54.416Z,22.50
2019-03-25T03:12:54.386Z,22.20
2019-03-25T03:13:54.368Z,24.20
2019-03-25T03:14:54.371Z,20.20
2019-03-25T03:15:54.345Z,17.60
2019-03-25T03:16:54.380Z,23.50
2019-03-25T03:17:54.330Z,26.40
2019-03-25T03:18:54.371Z,24.00
2019-03-25T03:19:55.314Z,19.70
2019-03-25T03:20:54.293Z,27.20
2019-03-25T03:21:54.360Z,21.90
2019-03-25T03:22:54.283Z,27.50
2019-03-25T03:23:54.277Z,23.00
2019-03-25T03:24:54.250Z,20.00
2019-03-25T03:25:57.726Z,23.60
2019-03-25T03:26:54.262Z,24.70
2019-03-25T03:27:54.216Z,21.40
2019-03-25T03:28:54.207Z,21.20
2019-03-25T03:29:54.191Z,21.20
2019-03-25T03:30:54.187Z,21.30
2019-03-25T03:31:54.201Z,18.00
2019-03-25T03:32:54.227Z,22.90
2019-03-25T03:33:54.159Z,22.50
2019-03-25T03:34:54.325Z,23.80
2019-03-25T03:35:54.131Z,22.70
2019-03-25T03:36:54.147Z,22.90
2019-03-25T03:37:54.104Z,23.80
2019-03-25T03:38:54.103Z,18.40
2019-03-25T03:39:54.090Z,23.20
2019-03-25T03:40:54.082Z,18.80
2019-03-25T03:41:54.112Z,24.00
2019-03-25T03:42:54.057Z,23.50
2019-03-25T03:43:54.048Z,22.30
2019-03-25T03:44:54.030Z,24.10
2019-03-25T03:45:54.023Z,27.50
2019-03-25T03:46:54.041Z,24.30
2019-03-25T03:47:54.007Z,23.30
2019-03-25T03:48:53.992Z,25.40
2019-03-25T03:49:53.975Z,25.90
2019-03-25T03:50:53.968Z,31.20
2019-03-25T03:51:53.985Z,30.90
2019-03-25T03:52:53.947Z,27.70
2019-03-25T03:53:53.949Z,29.90
2019-03-25T03:54:53.934Z,33.40
2019-03-25T03:55:53.918Z,39.80
2019-03-25T03:56:53.930Z,38.80
2019-03-25T03:57:53.899Z,41.30
2019-03-25T03:58:53.880Z,31.30
2019-03-25T03:59:53.867Z,29.10
2019-03-25T04:00:53.863Z,32.80
2019-03-25T04:01:53.891Z,31.30
2019-03-25T04:02:53.840Z,36.60
2019-03-25T04:03:53.831Z,48.00
2019-03-25T04:04:53.821Z,40.70
2019-03-25T04:05:53.807Z,44.10
2019-03-25T04:06:53.830Z,35.70
2019-03-25T04:07:53.790Z,29.90
2019-03-25T04:08:53.786Z,36.30
2019-03-25T04:09:53.768Z,38.50
2019-03-25T04:10:53.761Z,40.30
2019-03-25T04:11:53.782Z,41.30
2019-03-25T04:12:53.726Z,39.30
2019-03-25T04:13:53.723Z,44.20
2019-03-25T04:14:53.710Z,38.80
2019-03-25T04:15:53.701Z,36.60
2019-03-25T04:16:53.723Z,41.00
2019-03-25T04:17:53.696Z,45.40
2019-03-25T04:18:53.664Z,50.90
2019-03-25T04:19:53.662Z,55.30
2019-03-25T04:20:53.645Z,46.10
2019-03-25T04:21:53.659Z,44.00
2019-03-25T04:22:53.636Z,52.00
2019-03-25T04:23:53.615Z,56.30
2019-03-25T04:24:53.609Z,47.50
2019-03-25T04:25:53.594Z,42.20
2019-03-25T04:26:53.609Z,36.10
2019-03-25T04:27:53.576Z,36.40
2019-03-25T04:28:53.568Z,31.90
2019-03-25T04:29:53.564Z,38.50
2019-03-25T04:30:53.537Z,22.80
2019-03-25T04:31:53.559Z,17.80
2019-03-25T04:32:53.521Z,19.90
2019-03-25T04:33:53.509Z,17.90
2019-03-25T04:34:53.507Z,13.30
2019-03-25T04:35:53.485Z,15.80
2019-03-25T04:36:53.506Z,13.50
2019-03-25T04:37:56.310Z,13.10
2019-03-25T04:38:53.459Z,15.00
2019-03-25T04:39:53.446Z,15.10
2019-03-25T04:40:53.442Z,15.30
2019-03-25T04:41:53.447Z,16.00
2019-03-25T04:42:53.420Z,13.70
2019-03-25T04:43:54.520Z,13.80
2019-03-25T04:44:53.388Z,15.00
2019-03-25T04:45:53.383Z,14.40
2019-03-25T04:46:53.391Z,13.40
2019-03-25T04:47:53.356Z,11.30
2019-03-25T04:48:53.348Z,12.00
2019-03-25T04:49:53.340Z,12.40
2019-03-25T04:50:53.334Z,10.40
2019-03-25T04:51:53.357Z,11.70
2019-03-25T04:52:53.307Z,13.30
2019-03-25T04:53:53.298Z,14.00
2019-03-25T04:54:53.285Z,9.70
2019-03-25T04:55:53.271Z,11.40
2019-03-25T04:56:53.287Z,9.30
2019-03-25T04:57:53.250Z,10.00
2019-03-25T04:58:53.242Z,10.40
2019-03-25T04:59:53.229Z,10.20
2019-03-25T05:00:53.217Z,11.30
2019-03-25T05:01:53.237Z,10.50
2019-03-25T05:02:53.201Z,10.00
2019-03-25T05:03:53.190Z,9.90
2019-03-25T05:04:53.177Z,11.70
2019-03-25T05:05:53.165Z,9.80
2019-03-25T05:06:53.194Z,9.40
2019-03-25T05:07:53.141Z,6.90
2019-03-25T05:08:53.133Z,9.10
2019-03-25T05:09:53.119Z,9.00
2019-03-25T05:10:53.109Z,9.50
2019-03-25T05:11:53.097Z,6.20
2019-03-25T05:12:53.113Z,8.70
2019-03-25T05:13:53.076Z,11.90
2019-03-25T05:14:53.072Z,7.30
2019-03-25T05:15:53.060Z,8.00
2019-03-25T05:16:53.037Z,10.20
2019-03-25T05:17:53.059Z,6.10
2019-03-25T05:18:53.025Z,9.40
2019-03-25T05:19:53.013Z,7.20
2019-03-25T05:21:04.056Z,7.90
2019-03-25T05:21:52.989Z,8.40
2019-03-25T05:22:53.012Z,9.30
2019-03-25T05:23:52.970Z,9.20
2019-03-25T05:24:52.946Z,6.30
2019-03-25T05:25:52.960Z,8.40
2019-03-25T05:26:52.946Z,7.70
2019-03-25T05:27:52.952Z,8.70
2019-03-25T05:28:52.921Z,8.90
2019-03-25T05:29:52.911Z,7.50
2019-03-25T05:30:52.896Z,9.00
2019-03-25T05:31:52.888Z,7.50
2019-03-25T05:32:52.903Z,9.80
2019-03-25T05:33:52.865Z,8.50
2019-03-25T05:34:52.856Z,8.00
2019-03-25T05:35:52.845Z,7.60
2019-03-25T05:36:52.851Z,6.70
2019-03-25T05:37:52.853Z,7.00
2019-03-25T05:38:52.813Z,9.20
2019-03-25T05:39:52.796Z,8.60
2019-03-25T05:40:52.787Z,7.20
2019-03-25T05:41:52.777Z,8.50
2019-03-25T05:42:52.793Z,7.90
2019-03-25T05:43:52.755Z,9.20
2019-03-25T05:44:52.746Z,8.50
2019-03-25T05:45:52.735Z,7.70
2019-03-25T05:46:52.724Z,8.20
2019-03-25T05:47:52.736Z,9.50
2019-03-25T05:48:52.704Z,13.50
2019-03-25T05:49:52.693Z,11.80
2019-03-25T05:50:52.683Z,8.50
2019-03-25T05:51:52.692Z,12.40
2019-03-25T05:52:54.583Z,11.20
2019-03-25T05:53:52.650Z,8.40
2019-03-25T05:54:52.651Z,9.50
2019-03-25T05:55:52.629Z,9.20
2019-03-25T05:57:01.937Z,12.10
2019-03-25T05:57:53.636Z,9.90
2019-03-25T05:58:52.600Z,12.80
2019-03-25T05:59:52.593Z,11.10
2019-03-25T06:00:52.611Z,10.20
2019-03-25T06:01:52.564Z,12.10
2019-03-25T06:02:52.584Z,11.10
2019-03-25T06:03:52.549Z,11.80
2019-03-25T06:04:52.556Z,11.50
2019-03-25T06:05:52.522Z,10.00
2019-03-25T06:06:52.510Z,9.60
2019-03-25T06:07:52.538Z,12.50
2019-03-25T06:08:52.496Z,10.10
2019-03-25T06:09:52.486Z,10.30
2019-03-25T06:10:52.467Z,9.30
2019-03-25T06:11:52.473Z,11.10
2019-03-25T06:12:52.532Z,9.80
2019-03-25T06:13:52.443Z,8.10
2019-03-25T06:14:52.435Z,10.20
2019-03-25T06:15:52.416Z,10.10
2019-03-25T06:16:52.409Z,10.10
2019-03-25T06:17:52.420Z,9.10
2019-03-25T06:18:52.388Z,8.50
2019-03-25T06:19:52.377Z,9.60
2019-03-25T06:20:52.370Z,10.20
2019-03-25T06:21:52.349Z,7.70
2019-03-25T06:22:52.377Z,7.10
2019-03-25T06:23:52.366Z,7.30
2019-03-25T06:24:52.330Z,11.20
2019-03-25T06:25:52.312Z,10.60
2019-03-25T06:26:52.301Z,10.30
2019-03-25T06:27:52.328Z,9.70
2019-03-25T06:28:52.290Z,8.20
2019-03-25T06:29:52.268Z,12.20
2019-03-25T06:30:52.259Z,12.10
2019-03-25T06:31:52.261Z,15.90
2019-03-25T06:32:52.264Z,10.90
2019-03-25T06:33:52.224Z,9.60
2019-03-25T06:34:52.221Z,10.00
2019-03-25T06:35:52.254Z,9.60
2019-03-25T06:36:52.200Z,8.40
2019-03-25T06:37:52.205Z,9.20
2019-03-25T06:38:52.170Z,14.50
2019-03-25T06:39:52.165Z,13.00
2019-03-25T06:40:52.165Z,11.40
2019-03-25T06:41:52.154Z,13.90
2019-03-25T06:42:52.166Z,14.90
2019-03-25T06:43:52.139Z,15.40
2019-03-25T06:44:52.121Z,12.10
2019-03-25T06:45:52.199Z,16.80
2019-03-25T06:46:52.115Z,14.80
2019-03-25T06:47:52.218Z,17.40
2019-03-25T06:48:52.178Z,13.40
2019-03-25T06:49:52.281Z,12.50
2019-03-25T06:50:52.246Z,16.70
2019-03-25T06:51:52.589Z,15.20
2019-03-25T06:52:52.086Z,17.70
2019-03-25T06:53:52.120Z,13.90
2019-03-25T06:54:52.157Z,10.70
2019-03-25T06:55:52.173Z,13.60
2019-03-25T06:56:51.988Z,12.70
2019-03-25T06:57:52.005Z,13.20
2019-03-25T06:58:51.971Z,15.20
2019-03-25T06:59:51.952Z,18.60
2019-03-25T07:00:51.946Z,12.90
2019-03-25T07:01:51.935Z,13.70
2019-03-25T07:02:51.953Z,14.40
2019-03-25T07:03:51.933Z,17.10
2019-03-25T07:04:51.905Z,11.00
2019-03-25T07:05:51.895Z,12.90
2019-03-25T07:06:51.889Z,11.30
2019-03-25T07:07:51.899Z,10.80
2019-03-25T07:08:51.857Z,16.30
2019-03-25T07:09:51.846Z,15.10
2019-03-25T07:10:51.835Z,15.90
2019-03-25T07:11:51.829Z,14.10
2019-03-25T07:12:51.847Z,14.00
2019-03-25T07:13:51.803Z,13.00
2019-03-25T07:14:51.798Z,18.20
2019-03-25T07:15:51.790Z,16.50
2019-03-25T07:16:51.773Z,15.70
2019-03-25T07:17:51.793Z,13.30
2019-03-25T07:18:51.748Z,16.50
2019-03-25T07:19:51.737Z,16.30
2019-03-25T07:20:51.738Z,17.30
2019-03-25T07:21:51.720Z,14.40
2019-03-25T07:22:51.763Z,17.00
2019-03-25T07:23:51.706Z,15.20
2019-03-25T07:24:51.683Z,23.00
2019-03-25T07:25:51.678Z,18.30
2019-03-25T07:26:51.666Z,14.30
2019-03-25T07:27:51.686Z,19.40
2019-03-25T07:28:51.640Z,18.20
2019-03-25T07:29:51.638Z,19.50
2019-03-25T07:30:51.624Z,20.10
2019-03-25T07:31:51.628Z,22.50
2019-03-25T07:32:51.630Z,20.00
2019-03-25T07:33:51.609Z,20.70
2019-03-25T07:34:51.578Z,15.00
2019-03-25T07:35:51.576Z,16.50
2019-03-25T07:36:51.563Z,19.40
2019-03-25T07:37:51.579Z,17.70
2019-03-25T07:38:51.542Z,13.90
2019-03-25T07:39:51.518Z,18.10
2019-03-25T07:40:51.510Z,17.70
2019-03-25T07:41:51.505Z,14.40
2019-03-25T07:42:51.505Z,18.00
2019-03-25T07:43:51.479Z,18.80
2019-03-25T07:44:51.473Z,21.10
2019-03-25T07:45:51.467Z,16.60
2019-03-25T07:46:51.466Z,15.20
2019-03-25T07:47:51.463Z,15.90
2019-03-25T07:48:51.429Z,14.00
2019-03-25T07:49:51.416Z,17.30
2019-03-25T07:50:51.408Z,16.10
2019-03-25T07:51:51.391Z,13.20
2019-03-25T07:52:51.426Z,15.90
2019-03-25T07:53:51.374Z,14.80
2019-03-25T07:54:51.371Z,11.30
2019-03-25T07:55:51.389Z,20.10
2019-03-25T07:56:51.342Z,22.20
2019-03-25T07:57:51.366Z,19.10
2019-03-25T07:58:51.367Z,19.00
2019-03-25T07:59:51.307Z,17.30
2019-03-25T08:00:51.297Z,15.60
2019-03-25T08:01:51.324Z,16.30
2019-03-25T08:02:51.321Z,17.60
2019-03-25T08:03:51.283Z,16.30
2019-03-25T08:04:51.255Z,15.50
2019-03-25T08:05:51.274Z,19.20
2019-03-25T08:06:51.234Z,22.40
2019-03-25T08:07:51.307Z,16.90
2019-03-25T08:08:51.210Z,15.80
2019-03-25T08:09:52.515Z,19.60
2019-03-25T08:10:51.189Z,17.80
2019-03-25T08:11:51.189Z,16.90
2019-03-25T08:12:51.192Z,20.90
2019-03-25T08:13:51.204Z,18.40
2019-03-25T08:14:51.168Z,21.70
2019-03-25T08:15:51.139Z,20.80
2019-03-25T08:16:51.123Z,23.00
2019-03-25T08:17:51.140Z,26.10
2019-03-25T08:18:51.105Z,20.80
2019-03-25T08:19:51.093Z,24.60
2019-03-25T08:20:51.079Z,24.50
2019-03-25T08:21:51.076Z,24.90
2019-03-25T08:22:51.091Z,23.10
2019-03-25T08:23:51.049Z,19.90
2019-03-25T08:24:51.051Z,25.80
2019-03-25T08:25:51.032Z,25.00
2019-03-25T08:26:51.031Z,23.70
2019-03-25T08:27:59.544Z,18.50
2019-03-25T08:28:52.003Z,17.90
2019-03-25T08:29:50.993Z,15.80
2019-03-25T08:30:50.978Z,19.30
2019-03-25T08:31:50.962Z,18.10
2019-03-25T08:32:50.975Z,14.50
2019-03-25T08:33:50.936Z,19.60
2019-03-25T08:34:50.930Z,11.50
2019-03-25T08:35:50.932Z,12.00
2019-03-25T08:36:50.908Z,11.70
2019-03-25T08:37:50.925Z,12.60
2019-03-25T08:38:50.884Z,11.80
2019-03-25T08:39:50.871Z,14.30
2019-03-25T08:40:50.861Z,10.30
2019-03-25T08:41:50.850Z,10.70
2019-03-25T08:42:50.872Z,12.40
2019-03-25T08:43:50.837Z,10.60
2019-03-25T08:44:50.823Z,12.80
2019-03-25T08:45:50.832Z,11.30
2019-03-25T08:46:50.810Z,10.30
2019-03-25T08:47:50.825Z,8.50
2019-03-25T08:48:50.767Z,11.90
2019-03-25T08:49:50.759Z,13.10
2019-03-25T08:50:50.761Z,11.20
2019-03-25T08:51:50.745Z,11.80
2019-03-25T08:52:50.747Z,12.90
2019-03-25T08:53:50.718Z,14.80
2019-03-25T08:54:50.703Z,12.00
2019-03-25T08:55:50.695Z,12.60
2019-03-25T08:56:50.720Z,11.00
2019-03-25T08:57:50.708Z,10.80
2019-03-25T08:58:50.692Z,13.30
2019-03-25T08:59:50.660Z,12.30
2019-03-25T09:00:50.649Z,12.10
2019-03-25T09:01:50.645Z,10.20
2019-03-25T09:02:50.658Z,10.80
2019-03-25T09:03:50.614Z,9.80
2019-03-25T09:04:50.610Z,11.50
2019-03-25T09:05:50.584Z,11.50
2019-03-25T09:06:50.583Z,11.70
2019-03-25T09:07:50.596Z,11.00
2019-03-25T09:08:50.570Z,13.60
2019-03-25T09:09:50.556Z,11.10
2019-03-25T09:10:50.534Z,10.90
2019-03-25T09:11:51.803Z,9.80
2019-03-25T09:12:50.545Z,10.10
2019-03-25T09:13:50.497Z,10.60
2019-03-25T09:14:50.491Z,9.60
2019-03-25T09:15:50.482Z,11.60
2019-03-25T09:16:50.465Z,10.10
2019-03-25T09:17:50.493Z,10.60
2019-03-25T09:18:50.456Z,10.50
2019-03-25T09:19:50.430Z,9.00
2019-03-25T09:20:50.428Z,10.30
2019-03-25T09:21:50.414Z,9.40
2019-03-25T09:22:50.444Z,9.30
2019-03-25T09:23:50.396Z,7.90
2019-03-25T09:24:50.402Z,8.80
2019-03-25T09:25:50.378Z,9.40
2019-03-25T09:26:50.366Z,11.60
2019-03-25T09:27:50.384Z,11.60
2019-03-25T09:28:50.346Z,12.00
2019-03-25T09:29:50.348Z,11.20
2019-03-25T09:30:50.341Z,10.30
2019-03-25T09:31:50.316Z,11.60
2019-03-25T09:32:50.339Z,11.80
2019-03-25T09:33:50.290Z,10.30
2019-03-25T09:34:50.281Z,9.80
2019-03-25T09:35:50.309Z,14.70
2019-03-25T09:36:50.257Z,17.30
2019-03-25T09:37:52.701Z,14.70
2019-03-25T09:38:50.242Z,12.70
2019-03-25T09:39:50.223Z,9.70
2019-03-25T09:40:50.220Z,13.10
2019-03-25T09:41:50.221Z,10.90
2019-03-25T09:42:50.222Z,11.90
2019-03-25T09:43:50.182Z,11.80
2019-03-25T09:44:50.183Z,11.20
2019-03-25T09:45:50.185Z,12.90
2019-03-25T09:46:50.153Z,12.40
2019-03-25T09:47:50.173Z,12.50
2019-03-25T09:48:50.132Z,12.60
2019-03-25T09:49:50.129Z,12.30
2019-03-25T09:50:50.114Z,11.50
2019-03-25T09:51:52.743Z,12.40
2019-03-25T09:52:50.103Z,11.30
2019-03-25T09:53:50.088Z,10.40
2019-03-25T09:54:50.070Z,10.00
2019-03-25T09:55:50.060Z,9.70
2019-03-25T09:56:50.028Z,11.20
2019-03-25T09:57:50.069Z,14.00
2019-03-25T09:58:50.033Z,12.20
2019-03-25T09:59:50.008Z,13.30
2019-03-25T10:00:52.056Z,13.00
2019-03-25T10:01:49.993Z,17.60
2019-03-25T10:02:50.006Z,14.50
2019-03-25T10:03:49.965Z,14.20
2019-03-25T10:04:49.952Z,12.50
2019-03-25T10:05:49.961Z,12.60
2019-03-25T10:06:49.937Z,11.10
2019-03-25T10:07:49.950Z,11.30
2019-03-25T10:08:49.935Z,13.00
2019-03-25T10:09:49.898Z,11.10
2019-03-25T10:10:49.902Z,11.70
2019-03-25T10:11:49.885Z,12.50
2019-03-25T10:12:49.900Z,11.10
2019-03-25T10:13:49.873Z,11.60
2019-03-25T10:14:49.857Z,10.60
2019-03-25T10:15:49.841Z,9.50
2019-03-25T10:16:49.833Z,11.60
2019-03-25T10:17:49.848Z,11.50
2019-03-25T10:18:49.814Z,10.90
2019-03-25T10:19:49.796Z,11.10
2019-03-25T10:20:49.783Z,10.30
2019-03-25T10:21:49.776Z,8.50
2019-03-25T10:22:49.781Z,12.20
2019-03-25T10:23:49.754Z,9.10
2019-03-25T10:24:49.743Z,8.50
2019-03-25T10:25:49.722Z,9.80
2019-03-25T10:26:49.728Z,10.80
2019-03-25T10:27:49.799Z,9.70
2019-03-25T10:28:49.711Z,10.30
2019-03-25T10:29:49.691Z,10.90
2019-03-25T10:30:49.686Z,10.90
2019-03-25T10:31:49.662Z,8.20
2019-03-25T10:32:49.684Z,11.20
2019-03-25T10:33:49.636Z,9.90
2019-03-25T10:34:49.632Z,11.20
2019-03-25T10:35:49.637Z,12.70
2019-03-25T10:36:49.618Z,9.60
2019-03-25T10:37:49.634Z,8.10
2019-03-25T10:38:49.640Z,9.40
2019-03-25T10:39:49.567Z,11.60
2019-03-25T10:40:49.566Z,11.50
2019-03-25T10:41:49.557Z,14.90
2019-03-25T10:42:49.584Z,13.70
2019-03-25T10:43:49.530Z,13.60
2019-03-25T10:44:49.522Z,15.60
2019-03-25T10:45:49.506Z,11.80
2019-03-25T10:46:49.515Z,12.50
2019-03-25T10:47:49.520Z,13.00
2019-03-25T10:48:49.518Z,13.80
2019-03-25T10:49:49.469Z,12.90
2019-03-25T10:50:49.472Z,7.90
2019-03-25T10:51:49.445Z,8.80
2019-03-25T10:52:49.463Z,7.40
2019-03-25T10:53:49.417Z,7.00
2019-03-25T10:54:49.549Z,6.90
2019-03-25T10:55:49.402Z,7.00
2019-03-25T10:56:49.678Z,7.80
2019-03-25T10:57:49.430Z,9.70
2019-03-25T10:58:57.799Z,8.40
2019-03-25T10:59:50.345Z,8.60
2019-03-25T11:00:49.341Z,8.60
2019-03-25T11:01:49.344Z,9.80
2019-03-25T11:02:49.322Z,7.60
2019-03-25T11:03:49.341Z,9.70
2019-03-25T11:04:49.327Z,8.30
2019-03-25T11:05:49.297Z,7.00
2019-03-25T11:06:49.284Z,10.70
2019-03-25T11:07:49.280Z,6.10
2019-03-25T11:08:49.295Z,8.20
2019-03-25T11:09:49.248Z,9.60
2019-03-25T11:10:49.248Z,8.00
2019-03-25T11:11:49.230Z,8.70
2019-03-25T11:12:49.218Z,8.60
2019-03-25T11:13:49.241Z,9.60
2019-03-25T11:14:49.211Z,9.90
2019-03-25T11:15:49.188Z,11.20
2019-03-25T11:16:49.197Z,8.40
2019-03-25T11:17:49.161Z,10.30
2019-03-25T11:18:49.183Z,8.20
2019-03-25T11:19:49.164Z,7.20
2019-03-25T11:21:41.483Z,10.40
2019-03-25T11:22:41.472Z,11.40
2019-03-25T11:23:41.484Z,12.40
2019-03-25T11:24:41.442Z,10.10
2019-03-25T11:25:41.434Z,10.10
2019-03-25T11:26:41.427Z,10.20
2019-03-25T11:27:41.411Z,12.00
2019-03-25T11:28:41.428Z,11.30
2019-03-25T11:29:41.395Z,7.80
2019-03-25T11:30:41.383Z,9.70
2019-03-25T11:31:41.371Z,11.20
2019-03-25T11:32:41.358Z,11.90
2019-03-25T11:33:41.380Z,8.10
2019-03-25T11:34:41.338Z,11.80
2019-03-25T11:35:41.327Z,10.70
2019-03-25T11:36:41.314Z,9.80
2019-03-25T11:37:41.306Z,9.10
2019-03-25T11:38:41.321Z,9.00
2019-03-25T11:39:41.286Z,9.60
2019-03-25T11:40:41.278Z,9.20
2019-03-25T11:41:41.263Z,10.40
2019-03-25T11:42:41.251Z,8.60
2019-03-25T11:43:41.313Z,8.90
2019-03-25T11:44:41.235Z,8.70
2019-03-25T11:45:41.228Z,8.30
2019-03-25T11:46:41.213Z,8.20
2019-03-25T11:47:41.198Z,8.70
2019-03-25T11:48:41.223Z,9.00
2019-03-25T11:49:41.199Z,9.00
2019-03-25T11:50:41.167Z,8.40
2019-03-25T11:51:41.154Z,9.90
2019-03-25T11:52:41.147Z,8.30
2019-03-25T11:53:41.169Z,8.00
2019-03-25T11:54:41.123Z,9.30
2019-03-25T11:55:41.118Z,9.80
2019-03-25T11:56:41.103Z,6.50
2019-03-25T11:57:41.096Z,8.50
2019-03-25T11:58:41.114Z,7.40
2019-03-25T11:59:41.074Z,9.90
2019-03-25T12:00:41.064Z,11.00
2019-03-25T12:01:41.053Z,9.30
2019-03-25T12:02:41.045Z,8.30
2019-03-25T12:03:41.057Z,9.80
2019-03-25T12:04:41.034Z,12.80
2019-03-25T12:05:41.007Z,12.20
2019-03-25T12:06:41.002Z,10.60
2019-03-25T12:07:40.987Z,10.40
2019-03-25T12:08:41.001Z,9.00
2019-03-25T12:09:41.659Z,8.40
2019-03-25T12:10:40.972Z,8.20
2019-03-25T12:11:40.948Z,8.40
2019-03-25T12:12:40.937Z,7.00
2019-03-25T12:13:40.949Z,8.50
2019-03-25T12:14:40.910Z,9.10
2019-03-25T12:15:40.899Z,8.20
2019-03-25T12:16:40.886Z,8.40
2019-03-25T12:17:40.879Z,8.80
2019-03-25T12:18:40.898Z,8.50
2019-03-25T12:19:40.857Z,7.70
2019-03-25T12:20:40.846Z,9.40
2019-03-25T12:21:40.867Z,7.60
2019-03-25T12:22:40.830Z,8.50
2019-03-25T12:23:40.848Z,7.20
2019-03-25T12:24:40.808Z,11.40
2019-03-25T12:25:40.801Z,8.10
2019-03-25T12:26:40.785Z,8.60
2019-03-25T12:27:40.771Z,7.90
2019-03-25T12:28:40.856Z,8.50
2019-03-25T12:29:40.756Z,8.10
2019-03-25T12:30:40.739Z,7.00
2019-03-25T12:31:40.736Z,10.50
2019-03-25T12:32:40.721Z,9.40
2019-03-25T12:33:40.738Z,10.10
2019-03-25T12:34:40.704Z,6.50
2019-03-25T12:35:40.689Z,10.30
2019-03-25T12:36:40.675Z,7.20
2019-03-25T12:37:40.667Z,8.30
2019-03-25T12:38:40.681Z,8.00
2019-03-25T12:39:40.648Z,10.50
2019-03-25T12:40:40.636Z,8.60
2019-03-25T12:41:40.624Z,11.10
2019-03-25T12:42:40.620Z,9.80
2019-03-25T12:43:40.631Z,7.50
2019-03-25T12:44:40.591Z,8.30
2019-03-25T12:45:40.588Z,9.90
2019-03-25T12:46:40.573Z,8.20
2019-03-25T12:47:40.558Z,10.60
2019-03-25T12:48:40.573Z,10.60
2019-03-25T12:49:40.540Z,9.70
2019-03-25T12:50:40.529Z,9.20
2019-03-25T12:51:40.521Z,8.40
2019-03-25T12:52:40.507Z,9.20
2019-03-25T12:53:40.525Z,10.10
2019-03-25T12:54:40.484Z,9.20
2019-03-25T12:55:40.481Z,11.00
2019-03-25T12:56:40.465Z,9.00
2019-03-25T12:57:40.455Z,11.10
2019-03-25T12:58:40.469Z,9.60
2019-03-25T12:59:41.598Z,11.40